sensor_id;sensor_type;location;lat;lon;timestamp;temperature;humidity
4374;DHT22;2201;51.100;6.814;2023-04-24T00:00:40;11.30;98.20
4374;DHT22;2201;51.100;6.814;2023-04-24T00:03:07;11.30;98.20
4374;DHT22;2201;51.100;6.814;2023-04-24T00:05:34;11.30;98.20
4374;DHT22;2201;51.100;6.814;2023-04-24T00:08:01;11.30;98.20
4374;DHT22;2201;51.100;6.814;2023-04-24T00:10:29;11.30;98.20
4374;DHT22;2201;51.100;6.814;2023-04-24T00:12:56;11.30;98.20
4374;DHT22;2201;51.100;6.814;2023-04-24T00:15:23;11.30;98.20
4374;DHT22;2201;51.100;6.814;2023-04-24T00:17:50;11.30;98.20
4374;DHT22;2201;51.100;6.814;2023-04-24T00:20:17;11.40;98.20
4374;DHT22;2201;51.100;6.814;2023-04-24T00:22:44;11.40;98.20
4374;DHT22;2201;51.100;6.814;2023-04-24T00:25:11;11.40;98.20
4374;DHT22;2201;51.100;6.814;2023-04-24T00:27:39;11.40;98.20
4374;DHT22;2201;51.100;6.814;2023-04-24T00:30:07;11.50;98.20
4374;DHT22;2201;51.100;6.814;2023-04-24T00:32:34;11.50;98.20
4374;DHT22;2201;51.100;6.814;2023-04-24T00:35:02;11.60;98.20
4374;DHT22;2201;51.100;6.814;2023-04-24T00:37:28;11.60;98.20
4374;DHT22;2201;51.100;6.814;2023-04-24T00:39:55;11.60;98.20
4374;DHT22;2201;51.100;6.814;2023-04-24T00:42:22;11.60;98.20
4374;DHT22;2201;51.100;6.814;2023-04-24T00:44:51;11.60;98.20
4374;DHT22;2201;51.100;6.814;2023-04-24T00:47:19;11.60;98.20
4374;DHT22;2201;51.100;6.814;2023-04-24T00:49:47;11.60;98.20
4374;DHT22;2201;51.100;6.814;2023-04-24T00:52:14;11.60;98.20
4374;DHT22;2201;51.100;6.814;2023-04-24T00:54:43;11.60;98.20
4374;DHT22;2201;51.100;6.814;2023-04-24T00:57:10;11.60;98.20
4374;DHT22;2201;51.100;6.814;2023-04-24T00:59:37;11.60;98.20
4374;DHT22;2201;51.100;6.814;2023-04-24T01:02:07;11.60;98.20
4374;DHT22;2201;51.100;6.814;2023-04-24T01:04:36;11.60;98.20
4374;DHT22;2201;51.100;6.814;2023-04-24T01:07:04;11.60;98.20
4374;DHT22;2201;51.100;6.814;2023-04-24T01:09:35;11.60;98.20
4374;DHT22;2201;51.100;6.814;2023-04-24T01:12:03;11.60;98.20
4374;DHT22;2201;51.100;6.814;2023-04-24T01:14:31;11.50;98.20
4374;DHT22;2201;51.100;6.814;2023-04-24T01:16:58;11.50;98.20
4374;DHT22;2201;51.100;6.814;2023-04-24T01:19:27;11.50;98.20
4374;DHT22;2201;51.100;6.814;2023-04-24T01:21:58;11.50;98.20
4374;DHT22;2201;51.100;6.814;2023-04-24T01:24:27;11.40;98.20
4374;DHT22;2201;51.100;6.814;2023-04-24T01:26:54;11.30;98.20
4374;DHT22;2201;51.100;6.814;2023-04-24T01:29:22;11.20;98.20
4374;DHT22;2201;51.100;6.814;2023-04-24T01:31:50;11.20;98.20
4374;DHT22;2201;51.100;6.814;2023-04-24T01:34:17;11.10;98.20
4374;DHT22;2201;51.100;6.814;2023-04-24T01:36:48;11.00;98.20
4374;DHT22;2201;51.100;6.814;2023-04-24T01:39:15;10.90;98.20
4374;DHT22;2201;51.100;6.814;2023-04-24T01:41:44;10.80;98.20
4374;DHT22;2201;51.100;6.814;2023-04-24T01:44:12;10.70;98.20
4374;DHT22;2201;51.100;6.814;2023-04-24T01:46:38;10.60;98.20
4374;DHT22;2201;51.100;6.814;2023-04-24T01:49:05;10.60;98.20
4374;DHT22;2201;51.100;6.814;2023-04-24T01:51:32;10.50;98.20
4374;DHT22;2201;51.100;6.814;2023-04-24T01:53:59;10.40;98.20
4374;DHT22;2201;51.100;6.814;2023-04-24T01:56:29;10.30;98.20
4374;DHT22;2201;51.100;6.814;2023-04-24T01:58:57;10.20;98.20
4374;DHT22;2201;51.100;6.814;2023-04-24T02:01:24;10.20;98.20
4374;DHT22;2201;51.100;6.814;2023-04-24T02:03:52;10.20;98.20
4374;DHT22;2201;51.100;6.814;2023-04-24T02:06:18;10.10;98.20
4374;DHT22;2201;51.100;6.814;2023-04-24T02:08:45;10.10;98.20
4374;DHT22;2201;51.100;6.814;2023-04-24T02:11:12;10.10;98.20
4374;DHT22;2201;51.100;6.814;2023-04-24T02:13:39;10.10;98.20
4374;DHT22;2201;51.100;6.814;2023-04-24T02:16:08;10.10;98.20
4374;DHT22;2201;51.100;6.814;2023-04-24T02:18:34;10.10;98.20
4374;DHT22;2201;51.100;6.814;2023-04-24T02:21:01;10.10;98.20
4374;DHT22;2201;51.100;6.814;2023-04-24T02:23:28;10.10;98.20
4374;DHT22;2201;51.100;6.814;2023-04-24T02:25:55;10.10;98.20
4374;DHT22;2201;51.100;6.814;2023-04-24T02:28:22;10.10;98.20
4374;DHT22;2201;51.100;6.814;2023-04-24T02:30:50;10.00;98.20
4374;DHT22;2201;51.100;6.814;2023-04-24T02:33:19;10.10;98.20
4374;DHT22;2201;51.100;6.814;2023-04-24T02:35:46;10.10;98.20
4374;DHT22;2201;51.100;6.814;2023-04-24T02:38:13;10.10;98.20
4374;DHT22;2201;51.100;6.814;2023-04-24T02:40:40;10.20;98.20
4374;DHT22;2201;51.100;6.814;2023-04-24T02:43:07;10.20;98.20
4374;DHT22;2201;51.100;6.814;2023-04-24T02:45:33;10.20;98.20
4374;DHT22;2201;51.100;6.814;2023-04-24T02:48:00;10.20;98.20
4374;DHT22;2201;51.100;6.814;2023-04-24T02:50:29;10.20;98.20
4374;DHT22;2201;51.100;6.814;2023-04-24T02:52:55;10.30;98.20
4374;DHT22;2201;51.100;6.814;2023-04-24T02:55:23;10.30;98.20
4374;DHT22;2201;51.100;6.814;2023-04-24T02:57:50;10.30;98.20
4374;DHT22;2201;51.100;6.814;2023-04-24T03:00:17;10.30;98.20
4374;DHT22;2201;51.100;6.814;2023-04-24T03:02:44;10.30;98.20
4374;DHT22;2201;51.100;6.814;2023-04-24T03:05:12;10.40;98.20
4374;DHT22;2201;51.100;6.814;2023-04-24T03:07:40;10.40;98.20
4374;DHT22;2201;51.100;6.814;2023-04-24T03:10:09;10.40;98.20
4374;DHT22;2201;51.100;6.814;2023-04-24T03:12:35;10.40;98.20
4374;DHT22;2201;51.100;6.814;2023-04-24T03:15:03;10.40;98.20
4374;DHT22;2201;51.100;6.814;2023-04-24T03:17:30;10.40;98.20
4374;DHT22;2201;51.100;6.814;2023-04-24T03:19:57;10.40;98.20
4374;DHT22;2201;51.100;6.814;2023-04-24T03:22:24;10.40;98.20
4374;DHT22;2201;51.100;6.814;2023-04-24T03:24:52;10.40;98.20
4374;DHT22;2201;51.100;6.814;2023-04-24T03:27:20;10.40;98.20
4374;DHT22;2201;51.100;6.814;2023-04-24T03:29:47;10.40;98.20
4374;DHT22;2201;51.100;6.814;2023-04-24T03:32:13;10.40;98.20
4374;DHT22;2201;51.100;6.814;2023-04-24T03:34:40;10.40;98.20
4374;DHT22;2201;51.100;6.814;2023-04-24T03:37:07;10.40;98.20
4374;DHT22;2201;51.100;6.814;2023-04-24T03:39:34;10.40;98.20
4374;DHT22;2201;51.100;6.814;2023-04-24T03:42:02;10.40;98.20
4374;DHT22;2201;51.100;6.814;2023-04-24T03:44:29;10.40;98.20
4374;DHT22;2201;51.100;6.814;2023-04-24T03:46:57;10.40;98.20
4374;DHT22;2201;51.100;6.814;2023-04-24T03:49:24;10.40;98.20
4374;DHT22;2201;51.100;6.814;2023-04-24T03:51:51;10.40;98.20
4374;DHT22;2201;51.100;6.814;2023-04-24T03:54:19;10.40;98.20
4374;DHT22;2201;51.100;6.814;2023-04-24T03:56:46;10.40;98.20
4374;DHT22;2201;51.100;6.814;2023-04-24T03:59:14;10.40;98.20
4374;DHT22;2201;51.100;6.814;2023-04-24T04:01:40;10.40;98.20
4374;DHT22;2201;51.100;6.814;2023-04-24T04:04:07;10.40;98.20
4374;DHT22;2201;51.100;6.814;2023-04-24T04:06:34;10.40;98.20
4374;DHT22;2201;51.100;6.814;2023-04-24T04:09:02;10.40;98.20
4374;DHT22;2201;51.100;6.814;2023-04-24T04:11:29;10.40;98.20
4374;DHT22;2201;51.100;6.814;2023-04-24T04:13:57;10.40;98.20
4374;DHT22;2201;51.100;6.814;2023-04-24T04:16:25;10.40;98.20
4374;DHT22;2201;51.100;6.814;2023-04-24T04:18:52;10.30;98.20
4374;DHT22;2201;51.100;6.814;2023-04-24T04:21:19;10.30;98.20
4374;DHT22;2201;51.100;6.814;2023-04-24T04:23:46;10.30;98.20
4374;DHT22;2201;51.100;6.814;2023-04-24T04:26:13;10.30;98.20
4374;DHT22;2201;51.100;6.814;2023-04-24T04:28:40;10.30;98.20
4374;DHT22;2201;51.100;6.814;2023-04-24T04:31:07;10.30;98.20
4374;DHT22;2201;51.100;6.814;2023-04-24T04:33:36;10.30;98.20
4374;DHT22;2201;51.100;6.814;2023-04-24T04:36:05;10.30;98.20
4374;DHT22;2201;51.100;6.814;2023-04-24T04:38:31;10.30;98.20
4374;DHT22;2201;51.100;6.814;2023-04-24T04:40:59;10.30;98.20
4374;DHT22;2201;51.100;6.814;2023-04-24T04:43:25;10.30;98.20
4374;DHT22;2201;51.100;6.814;2023-04-24T04:45:53;10.30;98.20
4374;DHT22;2201;51.100;6.814;2023-04-24T04:48:20;10.30;98.20
4374;DHT22;2201;51.100;6.814;2023-04-24T04:50:48;10.30;98.20
4374;DHT22;2201;51.100;6.814;2023-04-24T04:53:15;10.30;98.20
4374;DHT22;2201;51.100;6.814;2023-04-24T04:55:42;10.30;98.20
4374;DHT22;2201;51.100;6.814;2023-04-24T04:58:09;10.30;98.20
4374;DHT22;2201;51.100;6.814;2023-04-24T05:00:35;10.30;98.20
4374;DHT22;2201;51.100;6.814;2023-04-24T05:03:03;10.30;98.20
4374;DHT22;2201;51.100;6.814;2023-04-24T05:05:30;10.30;98.20
4374;DHT22;2201;51.100;6.814;2023-04-24T05:07:58;10.30;98.20
4374;DHT22;2201;51.100;6.814;2023-04-24T05:10:25;10.30;98.20
4374;DHT22;2201;51.100;6.814;2023-04-24T05:12:52;10.30;98.20
4374;DHT22;2201;51.100;6.814;2023-04-24T05:15:18;10.30;98.20
4374;DHT22;2201;51.100;6.814;2023-04-24T05:17:45;10.30;98.20
4374;DHT22;2201;51.100;6.814;2023-04-24T05:20:13;10.30;98.20
4374;DHT22;2201;51.100;6.814;2023-04-24T05:22:40;10.30;98.20
4374;DHT22;2201;51.100;6.814;2023-04-24T05:25:08;10.30;98.20
4374;DHT22;2201;51.100;6.814;2023-04-24T05:27:35;10.30;98.20
4374;DHT22;2201;51.100;6.814;2023-04-24T05:30:03;10.30;98.20
4374;DHT22;2201;51.100;6.814;2023-04-24T05:32:30;10.30;98.20
4374;DHT22;2201;51.100;6.814;2023-04-24T05:34:56;10.20;98.20
4374;DHT22;2201;51.100;6.814;2023-04-24T05:37:23;10.20;98.20
4374;DHT22;2201;51.100;6.814;2023-04-24T05:39:51;10.10;98.20
4374;DHT22;2201;51.100;6.814;2023-04-24T05:42:19;10.10;98.20
4374;DHT22;2201;51.100;6.814;2023-04-24T05:44:46;10.00;98.20
4374;DHT22;2201;51.100;6.814;2023-04-24T05:47:13;10.00;98.20
4374;DHT22;2201;51.100;6.814;2023-04-24T05:49:40;10.00;98.20
4374;DHT22;2201;51.100;6.814;2023-04-24T05:52:07;9.90;98.20
4374;DHT22;2201;51.100;6.814;2023-04-24T05:54:34;9.90;98.20
4374;DHT22;2201;51.100;6.814;2023-04-24T05:57:01;9.90;98.20
4374;DHT22;2201;51.100;6.814;2023-04-24T06:02:01;9.90;98.20
4374;DHT22;2201;51.100;6.814;2023-04-24T06:04:28;9.90;98.20
4374;DHT22;2201;51.100;6.814;2023-04-24T06:06:55;9.90;98.20
4374;DHT22;2201;51.100;6.814;2023-04-24T06:09:22;9.80;98.20
4374;DHT22;2201;51.100;6.814;2023-04-24T06:11:49;9.80;98.20
4374;DHT22;2201;51.100;6.814;2023-04-24T06:14:18;9.80;98.20
4374;DHT22;2201;51.100;6.814;2023-04-24T06:16:46;9.90;98.20
4374;DHT22;2201;51.100;6.814;2023-04-24T06:19:13;9.90;98.20
4374;DHT22;2201;51.100;6.814;2023-04-24T06:21:40;9.90;98.20
4374;DHT22;2201;51.100;6.814;2023-04-24T06:24:07;9.90;98.20
4374;DHT22;2201;51.100;6.814;2023-04-24T06:26:33;9.90;98.20
4374;DHT22;2201;51.100;6.814;2023-04-24T06:29:00;9.90;98.20
4374;DHT22;2201;51.100;6.814;2023-04-24T06:31:27;9.80;98.20
4374;DHT22;2201;51.100;6.814;2023-04-24T06:33:55;9.80;98.20
4374;DHT22;2201;51.100;6.814;2023-04-24T06:36:22;9.80;98.20
4374;DHT22;2201;51.100;6.814;2023-04-24T06:38:49;9.70;98.20
4374;DHT22;2201;51.100;6.814;2023-04-24T06:41:15;9.70;98.20
4374;DHT22;2201;51.100;6.814;2023-04-24T06:43:44;9.70;98.20
4374;DHT22;2201;51.100;6.814;2023-04-24T06:46:11;9.70;98.20
4374;DHT22;2201;51.100;6.814;2023-04-24T06:48:39;9.70;98.20
4374;DHT22;2201;51.100;6.814;2023-04-24T06:51:07;9.60;98.20
4374;DHT22;2201;51.100;6.814;2023-04-24T06:53:34;9.60;98.20
4374;DHT22;2201;51.100;6.814;2023-04-24T06:56:01;9.60;98.20
4374;DHT22;2201;51.100;6.814;2023-04-24T06:58:30;9.60;98.20
4374;DHT22;2201;51.100;6.814;2023-04-24T07:00:57;9.50;98.20
4374;DHT22;2201;51.100;6.814;2023-04-24T07:03:24;9.50;98.20
4374;DHT22;2201;51.100;6.814;2023-04-24T07:05:50;9.50;98.20
4374;DHT22;2201;51.100;6.814;2023-04-24T07:08:20;9.50;98.20
4374;DHT22;2201;51.100;6.814;2023-04-24T07:10:48;9.50;98.20
4374;DHT22;2201;51.100;6.814;2023-04-24T07:13:14;9.40;98.20
4374;DHT22;2201;51.100;6.814;2023-04-24T07:15:41;9.40;98.20
4374;DHT22;2201;51.100;6.814;2023-04-24T07:18:08;9.50;98.20
4374;DHT22;2201;51.100;6.814;2023-04-24T07:20:35;9.40;98.20
4374;DHT22;2201;51.100;6.814;2023-04-24T07:23:02;9.40;98.20
4374;DHT22;2201;51.100;6.814;2023-04-24T07:25:30;9.40;98.20
4374;DHT22;2201;51.100;6.814;2023-04-24T07:27:57;9.40;98.20
4374;DHT22;2201;51.100;6.814;2023-04-24T07:30:24;9.40;98.20
4374;DHT22;2201;51.100;6.814;2023-04-24T07:32:51;9.40;98.20
4374;DHT22;2201;51.100;6.814;2023-04-24T07:35:18;9.30;98.20
4374;DHT22;2201;51.100;6.814;2023-04-24T07:37:45;9.30;98.20
4374;DHT22;2201;51.100;6.814;2023-04-24T07:40:12;9.30;98.20
4374;DHT22;2201;51.100;6.814;2023-04-24T07:42:40;9.30;98.20
4374;DHT22;2201;51.100;6.814;2023-04-24T07:45:07;9.30;98.20
4374;DHT22;2201;51.100;6.814;2023-04-24T07:47:34;9.20;98.20
4374;DHT22;2201;51.100;6.814;2023-04-24T07:50:03;9.20;98.20
4374;DHT22;2201;51.100;6.814;2023-04-24T07:52:29;9.20;98.20
4374;DHT22;2201;51.100;6.814;2023-04-24T07:54:56;9.10;98.20
4374;DHT22;2201;51.100;6.814;2023-04-24T07:57:25;9.00;98.20
4374;DHT22;2201;51.100;6.814;2023-04-24T07:59:53;8.90;98.20
4374;DHT22;2201;51.100;6.814;2023-04-24T08:02:20;8.80;98.20
4374;DHT22;2201;51.100;6.814;2023-04-24T08:04:51;8.70;98.20
4374;DHT22;2201;51.100;6.814;2023-04-24T08:07:18;8.70;98.20
4374;DHT22;2201;51.100;6.814;2023-04-24T08:09:45;8.60;98.20
4374;DHT22;2201;51.100;6.814;2023-04-24T08:12:12;8.60;98.20
4374;DHT22;2201;51.100;6.814;2023-04-24T08:14:38;8.60;98.20
4374;DHT22;2201;51.100;6.814;2023-04-24T08:17:07;8.50;98.20
4374;DHT22;2201;51.100;6.814;2023-04-24T08:19:34;8.50;98.20
4374;DHT22;2201;51.100;6.814;2023-04-24T08:22:00;8.50;98.20
4374;DHT22;2201;51.100;6.814;2023-04-24T08:24:28;8.60;98.20
4374;DHT22;2201;51.100;6.814;2023-04-24T08:26:55;8.60;98.20
4374;DHT22;2201;51.100;6.814;2023-04-24T08:29:23;8.60;98.20
4374;DHT22;2201;51.100;6.814;2023-04-24T08:31:50;8.60;98.20
4374;DHT22;2201;51.100;6.814;2023-04-24T08:34:18;8.60;98.20
4374;DHT22;2201;51.100;6.814;2023-04-24T08:36:45;8.60;98.20
4374;DHT22;2201;51.100;6.814;2023-04-24T08:39:12;8.70;98.20
4374;DHT22;2201;51.100;6.814;2023-04-24T08:41:41;8.70;98.20
4374;DHT22;2201;51.100;6.814;2023-04-24T08:44:09;8.80;98.20
4374;DHT22;2201;51.100;6.814;2023-04-24T08:46:36;8.70;98.20
4374;DHT22;2201;51.100;6.814;2023-04-24T08:49:04;8.80;98.20
4374;DHT22;2201;51.100;6.814;2023-04-24T08:51:33;8.80;98.20
4374;DHT22;2201;51.100;6.814;2023-04-24T08:54:00;8.80;98.20
4374;DHT22;2201;51.100;6.814;2023-04-24T08:56:28;8.80;98.20
4374;DHT22;2201;51.100;6.814;2023-04-24T08:58:57;8.80;98.20
4374;DHT22;2201;51.100;6.814;2023-04-24T09:01:25;8.80;98.20
4374;DHT22;2201;51.100;6.814;2023-04-24T09:03:55;8.80;98.20
4374;DHT22;2201;51.100;6.814;2023-04-24T09:06:23;8.80;98.20
4374;DHT22;2201;51.100;6.814;2023-04-24T09:08:54;8.80;98.20
4374;DHT22;2201;51.100;6.814;2023-04-24T09:11:22;8.80;98.20
4374;DHT22;2201;51.100;6.814;2023-04-24T09:13:51;8.80;98.20
4374;DHT22;2201;51.100;6.814;2023-04-24T09:16:18;8.80;98.20
4374;DHT22;2201;51.100;6.814;2023-04-24T09:18:45;8.80;98.20
4374;DHT22;2201;51.100;6.814;2023-04-24T09:21:12;8.90;98.20
4374;DHT22;2201;51.100;6.814;2023-04-24T09:23:42;8.90;98.20
4374;DHT22;2201;51.100;6.814;2023-04-24T09:26:10;8.90;98.20
4374;DHT22;2201;51.100;6.814;2023-04-24T09:28:40;9.00;98.20
4374;DHT22;2201;51.100;6.814;2023-04-24T09:31:09;9.00;98.20
4374;DHT22;2201;51.100;6.814;2023-04-24T09:33:36;9.00;98.20
4374;DHT22;2201;51.100;6.814;2023-04-24T09:36:03;9.00;98.20
4374;DHT22;2201;51.100;6.814;2023-04-24T09:38:38;9.10;98.20
4374;DHT22;2201;51.100;6.814;2023-04-24T09:41:06;9.10;98.20
4374;DHT22;2201;51.100;6.814;2023-04-24T09:43:35;9.20;98.20
4374;DHT22;2201;51.100;6.814;2023-04-24T09:46:04;9.20;98.20
4374;DHT22;2201;51.100;6.814;2023-04-24T09:48:32;9.30;98.20
4374;DHT22;2201;51.100;6.814;2023-04-24T09:51:00;9.40;98.20
4374;DHT22;2201;51.100;6.814;2023-04-24T09:53:29;9.50;98.20
4374;DHT22;2201;51.100;6.814;2023-04-24T09:55:56;9.60;98.20
4374;DHT22;2201;51.100;6.814;2023-04-24T09:58:29;9.70;98.20
4374;DHT22;2201;51.100;6.814;2023-04-24T10:00:57;9.70;98.20
4374;DHT22;2201;51.100;6.814;2023-04-24T10:03:25;9.80;98.20
4374;DHT22;2201;51.100;6.814;2023-04-24T10:05:59;9.80;98.20
4374;DHT22;2201;51.100;6.814;2023-04-24T10:08:26;9.90;98.20
4374;DHT22;2201;51.100;6.814;2023-04-24T10:10:59;10.00;98.20
4374;DHT22;2201;51.100;6.814;2023-04-24T10:13:26;10.20;98.20
4374;DHT22;2201;51.100;6.814;2023-04-24T10:15:54;10.30;98.20
4374;DHT22;2201;51.100;6.814;2023-04-24T10:18:24;10.40;98.20
4374;DHT22;2201;51.100;6.814;2023-04-24T10:20:52;10.50;98.20
4374;DHT22;2201;51.100;6.814;2023-04-24T10:23:20;10.70;98.20
4374;DHT22;2201;51.100;6.814;2023-04-24T10:25:48;10.90;98.20
4374;DHT22;2201;51.100;6.814;2023-04-24T10:28:17;11.00;98.20
4374;DHT22;2201;51.100;6.814;2023-04-24T10:30:45;11.10;98.20
4374;DHT22;2201;51.100;6.814;2023-04-24T10:33:14;11.10;98.20
4374;DHT22;2201;51.100;6.814;2023-04-24T10:35:45;11.10;98.20
4374;DHT22;2201;51.100;6.814;2023-04-24T10:38:16;11.00;98.20
4374;DHT22;2201;51.100;6.814;2023-04-24T10:40:45;11.00;98.20
4374;DHT22;2201;51.100;6.814;2023-04-24T10:43:17;10.90;98.20
4374;DHT22;2201;51.100;6.814;2023-04-24T10:46:01;10.80;98.20
4374;DHT22;2201;51.100;6.814;2023-04-24T10:48:28;10.80;98.20
4374;DHT22;2201;51.100;6.814;2023-04-24T10:50:57;10.70;98.20
4374;DHT22;2201;51.100;6.814;2023-04-24T10:53:27;10.80;98.20
4374;DHT22;2201;51.100;6.814;2023-04-24T10:55:57;10.90;98.20
4374;DHT22;2201;51.100;6.814;2023-04-24T10:58:36;11.00;98.20
4374;DHT22;2201;51.100;6.814;2023-04-24T11:01:03;11.00;98.20
4374;DHT22;2201;51.100;6.814;2023-04-24T11:03:31;11.10;98.20
4374;DHT22;2201;51.100;6.814;2023-04-24T11:06:02;11.10;98.20
4374;DHT22;2201;51.100;6.814;2023-04-24T11:08:32;11.10;98.20
4374;DHT22;2201;51.100;6.814;2023-04-24T11:11:07;11.10;98.20
4374;DHT22;2201;51.100;6.814;2023-04-24T11:16:44;11.30;98.20
4374;DHT22;2201;51.100;6.814;2023-04-24T11:19:20;11.30;98.20
4374;DHT22;2201;51.100;6.814;2023-04-24T11:21:56;11.40;98.20
4374;DHT22;2201;51.100;6.814;2023-04-24T11:24:26;11.60;98.20
4374;DHT22;2201;51.100;6.814;2023-04-24T11:26:54;11.90;98.20
4374;DHT22;2201;51.100;6.814;2023-04-24T11:29:22;12.20;98.20
4374;DHT22;2201;51.100;6.814;2023-04-24T11:31:49;12.50;98.20
4374;DHT22;2201;51.100;6.814;2023-04-24T11:34:17;13.00;98.20
4374;DHT22;2201;51.100;6.814;2023-04-24T11:36:45;13.40;98.20
4374;DHT22;2201;51.100;6.814;2023-04-24T11:39:14;13.60;98.20
4374;DHT22;2201;51.100;6.814;2023-04-24T11:41:41;13.80;98.20
4374;DHT22;2201;51.100;6.814;2023-04-24T11:44:09;13.90;98.20
4374;DHT22;2201;51.100;6.814;2023-04-24T11:46:36;14.00;98.20
4374;DHT22;2201;51.100;6.814;2023-04-24T11:49:05;13.90;98.20
4374;DHT22;2201;51.100;6.814;2023-04-24T11:51:32;13.70;98.20
4374;DHT22;2201;51.100;6.814;2023-04-24T11:54:00;13.50;98.20
4374;DHT22;2201;51.100;6.814;2023-04-24T11:56:28;13.40;98.20
4374;DHT22;2201;51.100;6.814;2023-04-24T11:58:55;13.30;98.20
4374;DHT22;2201;51.100;6.814;2023-04-24T12:01:22;13.10;98.20
4374;DHT22;2201;51.100;6.814;2023-04-24T12:03:49;13.00;98.20
4374;DHT22;2201;51.100;6.814;2023-04-24T12:06:17;12.90;98.20
4374;DHT22;2201;51.100;6.814;2023-04-24T12:08:46;12.70;98.20
4374;DHT22;2201;51.100;6.814;2023-04-24T12:11:16;12.60;98.20
4374;DHT22;2201;51.100;6.814;2023-04-24T12:13:45;12.60;98.20
4374;DHT22;2201;51.100;6.814;2023-04-24T12:16:12;12.60;98.20
4374;DHT22;2201;51.100;6.814;2023-04-24T12:18:44;12.60;98.20
4374;DHT22;2201;51.100;6.814;2023-04-24T12:21:21;12.70;98.20
4374;DHT22;2201;51.100;6.814;2023-04-24T12:23:54;12.80;98.20
4374;DHT22;2201;51.100;6.814;2023-04-24T12:26:21;13.00;98.20
4374;DHT22;2201;51.100;6.814;2023-04-24T12:28:51;13.10;98.20
4374;DHT22;2201;51.100;6.814;2023-04-24T12:31:21;13.30;98.20
4374;DHT22;2201;51.100;6.814;2023-04-24T12:33:47;13.40;98.20
4374;DHT22;2201;51.100;6.814;2023-04-24T12:36:14;13.60;98.20
4374;DHT22;2201;51.100;6.814;2023-04-24T12:38:44;13.70;98.20
4374;DHT22;2201;51.100;6.814;2023-04-24T12:41:12;13.70;98.20
4374;DHT22;2201;51.100;6.814;2023-04-24T12:43:52;13.70;98.20
4374;DHT22;2201;51.100;6.814;2023-04-24T12:46:19;13.60;98.20
4374;DHT22;2201;51.100;6.814;2023-04-24T12:48:46;13.50;98.20
4374;DHT22;2201;51.100;6.814;2023-04-24T12:51:12;13.50;98.20
4374;DHT22;2201;51.100;6.814;2023-04-24T12:53:39;13.70;98.20
4374;DHT22;2201;51.100;6.814;2023-04-24T12:56:06;13.90;98.20
4374;DHT22;2201;51.100;6.814;2023-04-24T12:58:32;14.10;98.20
4374;DHT22;2201;51.100;6.814;2023-04-24T13:01:01;14.20;98.20
4374;DHT22;2201;51.100;6.814;2023-04-24T13:03:27;14.30;98.20
4374;DHT22;2201;51.100;6.814;2023-04-24T13:05:54;14.30;98.20
4374;DHT22;2201;51.100;6.814;2023-04-24T13:08:21;14.10;98.20
4374;DHT22;2201;51.100;6.814;2023-04-24T13:10:48;14.00;98.20
4374;DHT22;2201;51.100;6.814;2023-04-24T13:13:16;14.00;98.20
4374;DHT22;2201;51.100;6.814;2023-04-24T13:15:43;14.00;98.20
4374;DHT22;2201;51.100;6.814;2023-04-24T13:18:11;14.00;98.20
4374;DHT22;2201;51.100;6.814;2023-04-24T13:20:38;14.00;98.20
4374;DHT22;2201;51.100;6.814;2023-04-24T13:23:06;14.10;98.20
4374;DHT22;2201;51.100;6.814;2023-04-24T13:25:35;14.10;98.20
4374;DHT22;2201;51.100;6.814;2023-04-24T13:28:02;14.40;98.20
4374;DHT22;2201;51.100;6.814;2023-04-24T13:30:29;14.70;98.00
4374;DHT22;2201;51.100;6.814;2023-04-24T13:32:56;14.80;96.40
4374;DHT22;2201;51.100;6.814;2023-04-24T13:35:24;14.90;97.60
4374;DHT22;2201;51.100;6.814;2023-04-24T13:37:51;14.80;95.00
4374;DHT22;2201;51.100;6.814;2023-04-24T13:40:18;14.70;96.00
4374;DHT22;2201;51.100;6.814;2023-04-24T13:42:45;14.50;93.80
4374;DHT22;2201;51.100;6.814;2023-04-24T13:45:12;14.20;91.80
4374;DHT22;2201;51.100;6.814;2023-04-24T13:47:39;14.00;92.70
4374;DHT22;2201;51.100;6.814;2023-04-24T13:50:07;13.80;94.80
4374;DHT22;2201;51.100;6.814;2023-04-24T13:52:36;13.80;95.70
4374;DHT22;2201;51.100;6.814;2023-04-24T13:55:03;13.80;96.40
4374;DHT22;2201;51.100;6.814;2023-04-24T13:57:30;13.90;96.90
4374;DHT22;2201;51.100;6.814;2023-04-24T13:59:58;14.10;95.90
4374;DHT22;2201;51.100;6.814;2023-04-24T14:02:26;14.30;96.10
4374;DHT22;2201;51.100;6.814;2023-04-24T14:04:53;14.70;96.10
4374;DHT22;2201;51.100;6.814;2023-04-24T14:07:20;15.00;95.00
4374;DHT22;2201;51.100;6.814;2023-04-24T14:09:48;15.00;94.50
4374;DHT22;2201;51.100;6.814;2023-04-24T14:12:15;15.00;93.80
4374;DHT22;2201;51.100;6.814;2023-04-24T14:14:45;14.90;93.60
4374;DHT22;2201;51.100;6.814;2023-04-24T14:17:12;15.00;95.50
4374;DHT22;2201;51.100;6.814;2023-04-24T14:19:39;15.10;94.70
4374;DHT22;2201;51.100;6.814;2023-04-24T14:22:06;15.20;94.30
4374;DHT22;2201;51.100;6.814;2023-04-24T14:24:33;15.10;93.90
4374;DHT22;2201;51.100;6.814;2023-04-24T14:27:01;14.90;93.90
4374;DHT22;2201;51.100;6.814;2023-04-24T14:29:28;14.70;93.00
4374;DHT22;2201;51.100;6.814;2023-04-24T14:31:54;14.40;92.40
4374;DHT22;2201;51.100;6.814;2023-04-24T14:34:21;14.40;92.80
4374;DHT22;2201;51.100;6.814;2023-04-24T14:36:48;14.40;93.30
4374;DHT22;2201;51.100;6.814;2023-04-24T14:39:15;14.50;94.40
4374;DHT22;2201;51.100;6.814;2023-04-24T14:41:41;14.60;93.50
4374;DHT22;2201;51.100;6.814;2023-04-24T14:44:10;14.80;93.10
4374;DHT22;2201;51.100;6.814;2023-04-24T14:46:37;14.90;93.30
4374;DHT22;2201;51.100;6.814;2023-04-24T14:49:03;15.00;93.40
4374;DHT22;2201;51.100;6.814;2023-04-24T14:51:30;15.10;92.60
4374;DHT22;2201;51.100;6.814;2023-04-24T14:53:58;15.00;91.40
4374;DHT22;2201;51.100;6.814;2023-04-24T14:56:25;15.10;91.60
4374;DHT22;2201;51.100;6.814;2023-04-24T14:58:51;15.10;92.50
4374;DHT22;2201;51.100;6.814;2023-04-24T15:01:20;15.30;91.70
4374;DHT22;2201;51.100;6.814;2023-04-24T15:03:47;15.50;92.00
4374;DHT22;2201;51.100;6.814;2023-04-24T15:06:13;15.70;90.50
4374;DHT22;2201;51.100;6.814;2023-04-24T15:08:40;15.80;90.20
4374;DHT22;2201;51.100;6.814;2023-04-24T15:11:07;16.00;88.90
4374;DHT22;2201;51.100;6.814;2023-04-24T15:13:35;16.00;88.00
4374;DHT22;2201;51.100;6.814;2023-04-24T15:16:02;15.90;88.70
4374;DHT22;2201;51.100;6.814;2023-04-24T15:18:31;15.80;88.90
4374;DHT22;2201;51.100;6.814;2023-04-24T15:20:58;15.80;89.30
4374;DHT22;2201;51.100;6.814;2023-04-24T15:23:25;15.80;88.80
4374;DHT22;2201;51.100;6.814;2023-04-24T15:25:52;15.70;88.60
4374;DHT22;2201;51.100;6.814;2023-04-24T15:28:18;15.70;90.00
4374;DHT22;2201;51.100;6.814;2023-04-24T15:30:47;15.70;87.80
4374;DHT22;2201;51.100;6.814;2023-04-24T15:33:14;15.70;87.80
4374;DHT22;2201;51.100;6.814;2023-04-24T15:35:42;15.70;86.70
4374;DHT22;2201;51.100;6.814;2023-04-24T15:38:09;15.80;86.20
4374;DHT22;2201;51.100;6.814;2023-04-24T15:40:37;15.60;86.40
4374;DHT22;2201;51.100;6.814;2023-04-24T15:43:04;15.60;86.70
4374;DHT22;2201;51.100;6.814;2023-04-24T15:45:32;15.60;86.70
4374;DHT22;2201;51.100;6.814;2023-04-24T15:48:00;15.70;87.00
4374;DHT22;2201;51.100;6.814;2023-04-24T15:50:27;15.80;86.60
4374;DHT22;2201;51.100;6.814;2023-04-24T15:52:56;15.90;86.70
4374;DHT22;2201;51.100;6.814;2023-04-24T15:55:24;15.80;86.30
4374;DHT22;2201;51.100;6.814;2023-04-24T15:57:51;15.70;86.70
4374;DHT22;2201;51.100;6.814;2023-04-24T16:00:19;15.60;86.20
4374;DHT22;2201;51.100;6.814;2023-04-24T16:02:46;15.50;86.10
4374;DHT22;2201;51.100;6.814;2023-04-24T16:05:15;15.40;87.60
4374;DHT22;2201;51.100;6.814;2023-04-24T16:07:42;15.20;88.90
4374;DHT22;2201;51.100;6.814;2023-04-24T16:10:11;15.10;88.70
4374;DHT22;2201;51.100;6.814;2023-04-24T16:12:39;15.10;89.60
4374;DHT22;2201;51.100;6.814;2023-04-24T16:15:06;15.00;89.20